Time;durP1;ratioP1;P1;durP2;ratioP2;P2;SDS_P1;SDS_P2;PMS_P1;PMS_P2;Temp;Humidity;BMP_temperature;BMP_pressure;BME280_temperature;BME280_humidity;BME280_pressure;Samples;Min_cycle;Max_cycle;Signal;HPM_P1;HPM_P2
2023/05/16 00:02:12;;;;;;;;;;;9.20;99.90;;;;;;5060680;28;19933;-64
2023/05/16 00:04:45;;;;;;;;;;;9.20;99.90;;;;;;5061289;28;19924;-64
2023/05/16 00:07:16;;;;;;;;;;;9.30;99.90;;;;;;5062810;28;19924;-64
2023/05/16 00:09:48;;;;;;;;;;;9.20;99.90;;;;;;5075725;28;20353;-64
2023/05/16 00:12:16;;;;;;;;;;;9.10;99.90;;;;;;5061274;28;19936;-64
2023/05/16 00:14:49;;;;;;;;;;;9.10;99.90;;;;;;5062414;28;19924;-64
2023/05/16 00:17:20;;;;;;;;;;;9.00;99.90;;;;;;5058268;28;19924;-64
2023/05/16 00:19:57;;;;;;;;;;;9.00;99.90;;;;;;5057720;28;20398;-64
2023/05/16 00:22:29;;;;;;;;;;;9.00;99.90;;;;;;5061725;28;19936;-64
2023/05/16 00:25:00;;;;;;;;;;;8.90;99.90;;;;;;5061208;28;19932;-64
2023/05/16 00:27:33;;;;;;;;;;;8.90;99.90;;;;;;5062702;28;19932;-64
2023/05/16 00:30:05;;;;;;;;;;;8.90;99.90;;;;;;5062926;28;19928;-64
2023/05/16 00:32:37;;;;;;;;;;;8.90;99.90;;;;;;5068246;28;20350;-65
2023/05/16 00:35:10;;;;;;;;;;;8.90;99.90;;;;;;5060388;28;19990;-64
2023/05/16 00:37:42;;;;;;;;;;;8.90;99.90;;;;;;5049361;28;19929;-65
2023/05/16 00:40:14;;;;;;;;;;;8.90;99.90;;;;;;5057165;28;20431;-64
2023/05/16 00:42:46;;;;;;;;;;;9.00;99.90;;;;;;5062947;28;19929;-65
2023/05/16 00:45:18;;;;;;;;;;;9.00;99.90;;;;;;5057011;28;20026;-64
2023/05/16 00:47:50;;;;;;;;;;;9.00;99.90;;;;;;5057721;28;19924;-64
2023/05/16 00:50:22;;;;;;;;;;;9.10;99.90;;;;;;5061768;28;19937;-64
2023/05/16 00:52:49;;;;;;;;;;;9.10;99.90;;;;;;5062600;28;19952;-64
2023/05/16 00:55:20;;;;;;;;;;;9.20;99.90;;;;;;5061727;28;20393;-64
2023/05/16 00:57:52;;;;;;;;;;;9.20;99.90;;;;;;5058794;28;19940;-64
2023/05/16 01:00:24;;;;;;;;;;;9.20;99.90;;;;;;5062784;28;19936;-64
2023/05/16 01:02:56;;;;;;;;;;;9.30;99.90;;;;;;5054661;28;19924;-64
2023/05/16 01:05:24;;;;;;;;;;;9.30;99.90;;;;;;5054912;28;20397;-64
2023/05/16 01:07:55;;;;;;;;;;;9.40;99.90;;;;;;5052289;28;20453;-64
2023/05/16 01:10:23;;;;;;;;;;;9.40;99.90;;;;;;5054761;28;19960;-64
2023/05/16 01:13:10;;;;;;;;;;;9.40;99.90;;;;;;5062334;28;19929;-64
2023/05/16 01:15:53;;;;;;;;;;;9.40;99.90;;;;;;5058435;28;19982;-64
2023/05/16 01:18:29;;;;;;;;;;;9.40;99.90;;;;;;5067381;28;20539;-64
2023/05/16 01:21:06;;;;;;;;;;;9.40;99.90;;;;;;5066357;28;20026;-64
2023/05/16 01:23:57;;;;;;;;;;;9.40;99.90;;;;;;5049228;28;20010;-64
2023/05/16 01:26:29;;;;;;;;;;;9.40;99.90;;;;;;5061039;28;19978;-64
2023/05/16 01:29:01;;;;;;;;;;;9.50;99.90;;;;;;5054754;28;19929;-65
2023/05/16 01:31:27;;;;;;;;;;;9.50;99.90;;;;;;5051277;28;19929;-64
2023/05/16 01:33:59;;;;;;;;;;;9.40;99.90;;;;;;5059981;28;19924;-64
2023/05/16 01:36:47;;;;;;;;;;;9.40;99.90;;;;;;5078889;28;19931;-64
2023/05/16 01:39:29;;;;;;;;;;;9.40;99.90;;;;;;5064679;28;19940;-64
2023/05/16 01:42:04;;;;;;;;;;;9.30;99.90;;;;;;5064439;28;19931;-64
2023/05/16 01:44:40;;;;;;;;;;;9.30;99.90;;;;;;5063818;28;19925;-64
2023/05/16 01:47:15;;;;;;;;;;;9.30;99.90;;;;;;5066963;28;19939;-64
2023/05/16 01:49:50;;;;;;;;;;;9.20;99.90;;;;;;5057637;28;19936;-64
2023/05/16 01:52:26;;;;;;;;;;;9.20;99.90;;;;;;5058824;28;19936;-64
2023/05/16 01:54:56;;;;;;;;;;;9.20;99.90;;;;;;5053387;28;19929;-64
2023/05/16 01:57:28;;;;;;;;;;;9.20;99.90;;;;;;5070489;28;19974;-64
2023/05/16 02:00:00;;;;;;;;;;;9.10;99.90;;;;;;5049546;28;19925;-64
2023/05/16 02:02:39;;;;;;;;;;;9.10;99.90;;;;;;5064802;28;20018;-65
2023/05/16 02:05:07;;;;;;;;;;;9.10;99.90;;;;;;5066187;28;19928;-65
2023/05/16 02:07:43;;;;;;;;;;;9.10;99.90;;;;;;5071386;28;19928;-64
2023/05/16 02:10:10;;;;;;;;;;;9.00;99.90;;;;;;5067391;28;19931;-64
2023/05/16 02:12:42;;;;;;;;;;;9.00;99.90;;;;;;5069131;28;19925;-64
2023/05/16 02:15:13;;;;;;;;;;;9.00;99.90;;;;;;5066991;28;19932;-66
2023/05/16 02:17:46;;;;;;;;;;;8.90;99.90;;;;;;5068840;28;19928;-65
2023/05/16 02:20:17;;;;;;;;;;;8.90;99.90;;;;;;5062459;28;19936;-65
2023/05/16 02:22:49;;;;;;;;;;;8.80;99.90;;;;;;5069681;28;19936;-64
2023/05/16 02:25:21;;;;;;;;;;;8.80;99.90;;;;;;5064204;28;19924;-64
2023/05/16 02:27:48;;;;;;;;;;;8.80;99.90;;;;;;5069831;28;19924;-64
2023/05/16 02:30:20;;;;;;;;;;;8.70;99.90;;;;;;5065784;28;20416;-65
2023/05/16 02:32:52;;;;;;;;;;;8.70;99.90;;;;;;5062553;28;20315;-64
2023/05/16 02:35:24;;;;;;;;;;;8.70;99.90;;;;;;5065702;28;19933;-65
2023/05/16 02:37:51;;;;;;;;;;;8.70;99.90;;;;;;5064762;28;19978;-64
2023/05/16 02:40:23;;;;;;;;;;;8.60;99.90;;;;;;5067701;28;19932;-64
2023/05/16 02:42:55;;;;;;;;;;;8.60;99.90;;;;;;5068531;28;20350;-64
2023/05/16 02:45:22;;;;;;;;;;;8.50;99.90;;;;;;5060563;28;19932;-64
2023/05/16 02:47:53;;;;;;;;;;;8.50;99.90;;;;;;5068494;28;20401;-65
2023/05/16 02:50:25;;;;;;;;;;;8.50;99.90;;;;;;5068979;28;19924;-64
2023/05/16 02:52:58;;;;;;;;;;;8.40;99.90;;;;;;5061652;28;19978;-64
2023/05/16 02:55:30;;;;;;;;;;;8.40;99.90;;;;;;5063182;28;19932;-65
2023/05/16 02:58:02;;;;;;;;;;;8.40;99.90;;;;;;5062824;28;20348;-64
2023/05/16 03:00:33;;;;;;;;;;;8.40;99.90;;;;;;5064932;28;20538;-64
2023/05/16 03:03:00;;;;;;;;;;;8.40;99.90;;;;;;5064845;28;19936;-64
2023/05/16 03:05:31;;;;;;;;;;;8.40;99.90;;;;;;5062558;28;19924;-64
2023/05/16 03:08:05;;;;;;;;;;;8.30;99.90;;;;;;5059390;28;19925;-64
2023/05/16 03:10:36;;;;;;;;;;;8.30;99.90;;;;;;5057886;28;19929;-64
2023/05/16 03:13:08;;;;;;;;;;;8.30;99.90;;;;;;5057456;28;20289;-64
2023/05/16 03:15:40;;;;;;;;;;;8.20;99.90;;;;;;5052530;28;19932;-64
2023/05/16 03:18:12;;;;;;;;;;;8.20;99.90;;;;;;5060218;28;19928;-65
2023/05/16 03:20:44;;;;;;;;;;;8.10;99.90;;;;;;5048454;28;19924;-64
2023/05/16 03:23:15;;;;;;;;;;;8.10;99.90;;;;;;5068049;28;20758;-64
2023/05/16 03:25:47;;;;;;;;;;;8.10;99.90;;;;;;5064727;28;19932;-65
2023/05/16 03:28:19;;;;;;;;;;;8.10;99.90;;;;;;5046851;28;19978;-64
2023/05/16 03:30:53;;;;;;;;;;;8.20;99.90;;;;;;5063192;28;19935;-65
2023/05/16 03:33:25;;;;;;;;;;;8.20;99.90;;;;;;5061072;28;19971;-64
2023/05/16 03:35:57;;;;;;;;;;;8.20;99.90;;;;;;5072026;28;20332;-64
2023/05/16 03:38:29;;;;;;;;;;;8.20;99.90;;;;;;5060525;28;19928;-64
2023/05/16 03:41:00;;;;;;;;;;;8.20;99.90;;;;;;5059177;28;19924;-64
2023/05/16 03:43:32;;;;;;;;;;;8.20;99.90;;;;;;5059217;28;19933;-64
2023/05/16 03:46:04;;;;;;;;;;;8.20;99.90;;;;;;5061000;28;19940;-64
2023/05/16 03:48:35;;;;;;;;;;;8.20;99.90;;;;;;5065611;28;19951;-64
2023/05/16 03:51:07;;;;;;;;;;;8.10;99.90;;;;;;5061144;28;19929;-64
2023/05/16 03:53:39;;;;;;;;;;;8.20;99.90;;;;;;5051543;28;19978;-64
2023/05/16 03:56:06;;;;;;;;;;;8.10;99.90;;;;;;5057055;28;19924;-64
2023/05/16 03:58:37;;;;;;;;;;;8.20;99.90;;;;;;5040990;28;19925;-64
2023/05/16 04:01:09;;;;;;;;;;;8.20;99.90;;;;;;5055389;28;19925;-64
2023/05/16 04:03:41;;;;;;;;;;;8.20;99.90;;;;;;5060178;28;19925;-64
2023/05/16 04:06:12;;;;;;;;;;;8.20;99.90;;;;;;5062207;28;19925;-65
2023/05/16 04:08:44;;;;;;;;;;;8.20;99.90;;;;;;5069363;28;20408;-64
2023/05/16 04:11:11;;;;;;;;;;;8.30;99.90;;;;;;5063480;28;19932;-65
2023/05/16 04:13:42;;;;;;;;;;;8.30;99.90;;;;;;5064945;28;20438;-63
2023/05/16 04:16:09;;;;;;;;;;;8.30;99.90;;;;;;5065237;28;20317;-65
2023/05/16 04:18:41;;;;;;;;;;;8.30;99.90;;;;;;5063969;28;19925;-64
2023/05/16 04:21:14;;;;;;;;;;;8.30;99.90;;;;;;5066077;28;19928;-65
2023/05/16 04:23:45;;;;;;;;;;;8.30;99.90;;;;;;5054618;28;19929;-64
2023/05/16 04:26:17;;;;;;;;;;;8.40;99.90;;;;;;5057680;28;19928;-64
2023/05/16 04:28:49;;;;;;;;;;;8.40;99.90;;;;;;5063782;28;19925;-65
2023/05/16 04:31:21;;;;;;;;;;;8.40;99.90;;;;;;5058708;28;19929;-65
2023/05/16 04:33:48;;;;;;;;;;;8.40;99.90;;;;;;5043363;28;20379;-65
2023/05/16 04:36:20;;;;;;;;;;;8.40;99.90;;;;;;5072210;28;19956;-65
2023/05/16 04:38:47;;;;;;;;;;;8.50;99.90;;;;;;5069169;28;20408;-65
2023/05/16 04:41:19;;;;;;;;;;;8.60;99.90;;;;;;5068295;28;19925;-67
2023/05/16 04:43:46;;;;;;;;;;;8.60;99.90;;;;;;5060475;28;20334;-65
2023/05/16 04:46:19;;;;;;;;;;;8.70;99.90;;;;;;5063117;28;19924;-65
2023/05/16 04:48:51;;;;;;;;;;;8.80;99.90;;;;;;5066952;28;19928;-65
2023/05/16 04:51:23;;;;;;;;;;;8.90;99.90;;;;;;5042661;28;20423;-64
2023/05/16 04:53:55;;;;;;;;;;;9.00;99.90;;;;;;5069112;28;20021;-64
2023/05/16 04:56:21;;;;;;;;;;;9.00;99.90;;;;;;5065552;28;20584;-65
2023/05/16 04:58:53;;;;;;;;;;;9.10;99.90;;;;;;5062833;28;19928;-64
2023/05/16 05:01:20;;;;;;;;;;;9.10;99.90;;;;;;5061231;28;19925;-65
2023/05/16 05:03:52;;;;;;;;;;;9.10;99.90;;;;;;5060921;28;19925;-64
2023/05/16 05:06:23;;;;;;;;;;;9.10;99.90;;;;;;5056455;28;19925;-64
2023/05/16 05:08:50;;;;;;;;;;;9.10;99.90;;;;;;5059458;28;19974;-64
2023/05/16 05:11:22;;;;;;;;;;;9.20;99.90;;;;;;5057618;28;19982;-64
2023/05/16 05:13:48;;;;;;;;;;;9.20;99.90;;;;;;5055095;28;20354;-65
2023/05/16 05:16:15;;;;;;;;;;;9.20;99.90;;;;;;5063883;28;19979;-65
2023/05/16 05:18:47;;;;;;;;;;;9.30;99.90;;;;;;5062025;28;19929;-65
2023/05/16 05:21:14;;;;;;;;;;;9.30;99.90;;;;;;5069734;28;20605;-64
2023/05/16 05:23:40;;;;;;;;;;;9.30;99.90;;;;;;5068411;28;20304;-65
2023/05/16 05:26:08;;;;;;;;;;;9.40;99.90;;;;;;5067560;28;19929;-64
2023/05/16 05:28:36;;;;;;;;;;;9.40;99.90;;;;;;5069956;28;19982;-64
2023/05/16 05:31:08;;;;;;;;;;;9.50;99.90;;;;;;5068763;28;19929;-64
2023/05/16 05:33:35;;;;;;;;;;;9.50;99.90;;;;;;5071444;28;20316;-64
2023/05/16 05:36:07;;;;;;;;;;;9.50;99.90;;;;;;5070428;28;20031;-65
2023/05/16 05:38:39;;;;;;;;;;;9.60;99.90;;;;;;5064335;28;20514;-64
2023/05/16 05:41:06;;;;;;;;;;;9.60;99.90;;;;;;5068804;28;20430;-64
2023/05/16 05:43:38;;;;;;;;;;;9.70;99.90;;;;;;5069249;28;19939;-64
2023/05/16 05:46:10;;;;;;;;;;;9.70;99.90;;;;;;5063898;28;20343;-64
2023/05/16 05:48:42;;;;;;;;;;;9.80;99.90;;;;;;5066089;28;20687;-65
2023/05/16 05:51:13;;;;;;;;;;;9.90;99.90;;;;;;5064925;28;19932;-64
2023/05/16 05:53:45;;;;;;;;;;;9.90;99.90;;;;;;5067451;28;19929;-65
2023/05/16 05:56:17;;;;;;;;;;;10.00;99.90;;;;;;5067414;28;19925;-65
2023/05/16 05:58:49;;;;;;;;;;;10.10;99.90;;;;;;5067377;28;19977;-65
2023/05/16 06:01:16;;;;;;;;;;;10.10;99.90;;;;;;5061761;28;19947;-65
2023/05/16 06:03:48;;;;;;;;;;;10.20;99.90;;;;;;5061713;28;19924;-64
2023/05/16 06:06:15;;;;;;;;;;;10.20;99.90;;;;;;5060635;28;19929;-65
2023/05/16 06:08:46;;;;;;;;;;;10.30;99.90;;;;;;5061941;28;19930;-64
2023/05/16 06:11:18;;;;;;;;;;;10.40;99.90;;;;;;5061740;28;19928;-64
2023/05/16 06:13:45;;;;;;;;;;;10.40;99.90;;;;;;5063834;28;19939;-65
2023/05/16 06:16:16;;;;;;;;;;;10.50;99.90;;;;;;5063647;28;19974;-65
2023/05/16 06:18:48;;;;;;;;;;;10.50;99.90;;;;;;5055253;28;19982;-65
2023/05/16 06:21:20;;;;;;;;;;;10.60;99.90;;;;;;5065814;28;19932;-65
2023/05/16 06:23:52;;;;;;;;;;;10.60;99.90;;;;;;5071287;28;19928;-64
2023/05/16 06:26:19;;;;;;;;;;;10.70;99.90;;;;;;5060181;28;19931;-65
2023/05/16 06:28:51;;;;;;;;;;;10.70;99.90;;;;;;5060811;28;19935;-64
2023/05/16 06:31:22;;;;;;;;;;;10.80;99.90;;;;;;5059678;28;19929;-64
2023/05/16 06:33:55;;;;;;;;;;;10.90;99.90;;;;;;5069806;28;19929;-65
2023/05/16 06:36:27;;;;;;;;;;;11.00;99.90;;;;;;5053319;28;19924;-65
2023/05/16 06:38:58;;;;;;;;;;;11.00;99.90;;;;;;5060214;28;19936;-65
2023/05/16 06:41:30;;;;;;;;;;;11.10;99.90;;;;;;5062543;28;19956;-65
2023/05/16 06:44:03;;;;;;;;;;;11.10;99.90;;;;;;5066305;28;19924;-65
2023/05/16 06:46:35;;;;;;;;;;;11.20;99.90;;;;;;5064908;28;20864;-64
2023/05/16 06:49:07;;;;;;;;;;;11.20;99.90;;;;;;5060224;28;20301;-65
2023/05/16 06:51:39;;;;;;;;;;;11.30;99.90;;;;;;5054043;28;19931;-65
2023/05/16 06:54:11;;;;;;;;;;;11.30;99.90;;;;;;5056354;28;20305;-65
2023/05/16 06:56:44;;;;;;;;;;;11.40;99.90;;;;;;5058454;28;19936;-65
2023/05/16 06:59:16;;;;;;;;;;;11.40;99.90;;;;;;5059136;28;20007;-64
2023/05/16 07:01:48;;;;;;;;;;;11.40;99.90;;;;;;5069273;28;19925;-65
2023/05/16 07:04:15;;;;;;;;;;;11.50;99.90;;;;;;5059952;28;20502;-65
2023/05/16 07:06:41;;;;;;;;;;;11.60;99.90;;;;;;5067355;28;19931;-65
2023/05/16 07:09:13;;;;;;;;;;;11.60;99.90;;;;;;5047324;28;19929;-65
2023/05/16 07:11:40;;;;;;;;;;;11.60;99.90;;;;;;5063619;28;19928;-65
2023/05/16 07:14:12;;;;;;;;;;;11.60;99.90;;;;;;5058847;28;19932;-65
2023/05/16 07:16:43;;;;;;;;;;;11.70;99.90;;;;;;5064424;28;19931;-65
2023/05/16 07:19:15;;;;;;;;;;;11.80;99.90;;;;;;5056172;28;19935;-65
2023/05/16 07:21:47;;;;;;;;;;;11.90;99.90;;;;;;5057598;28;19963;-65
2023/05/16 07:24:19;;;;;;;;;;;11.90;99.90;;;;;;5057711;28;19924;-65
2023/05/16 07:26:50;;;;;;;;;;;12.00;99.90;;;;;;5064442;28;19931;-65
2023/05/16 07:29:22;;;;;;;;;;;12.10;99.90;;;;;;5064045;28;19933;-65
2023/05/16 07:31:54;;;;;;;;;;;12.30;99.90;;;;;;5070760;28;20019;-65
2023/05/16 07:34:26;;;;;;;;;;;12.40;99.90;;;;;;5062703;28;19925;-65
2023/05/16 07:36:58;;;;;;;;;;;12.50;99.90;;;;;;5066518;28;19935;-65
2023/05/16 07:39:29;;;;;;;;;;;12.60;99.90;;;;;;5060501;28;20011;-65
2023/05/16 07:42:01;;;;;;;;;;;12.70;99.90;;;;;;5055818;28;19932;-65
2023/05/16 07:44:33;;;;;;;;;;;12.70;99.90;;;;;;5055295;28;19928;-65
2023/05/16 07:47:05;;;;;;;;;;;12.70;99.90;;;;;;5053955;28;19924;-65
2023/05/16 07:49:37;;;;;;;;;;;12.70;99.90;;;;;;5064160;28;19925;-65
2023/05/16 07:52:08;;;;;;;;;;;12.70;99.90;;;;;;5054654;28;20293;-65
2023/05/16 07:54:40;;;;;;;;;;;12.60;99.90;;;;;;5067010;28;20296;-65
2023/05/16 07:57:13;;;;;;;;;;;12.60;99.90;;;;;;5050561;28;19931;-65
2023/05/16 07:59:45;;;;;;;;;;;12.50;99.90;;;;;;5061585;28;19933;-64
2023/05/16 08:02:17;;;;;;;;;;;12.40;99.90;;;;;;5060988;28;20289;-64
2023/05/16 08:04:49;;;;;;;;;;;12.30;99.90;;;;;;5058156;28;19964;-64
2023/05/16 08:07:21;;;;;;;;;;;12.30;99.90;;;;;;5062569;28;19925;-65
2023/05/16 08:09:47;;;;;;;;;;;12.20;99.90;;;;;;5053237;28;19925;-65
2023/05/16 08:12:19;;;;;;;;;;;12.30;99.90;;;;;;5065015;28;20349;-65
2023/05/16 08:14:51;;;;;;;;;;;12.20;99.90;;;;;;5064649;28;19970;-65
2023/05/16 08:17:22;;;;;;;;;;;12.30;99.90;;;;;;5063884;28;19948;-65
2023/05/16 08:19:49;;;;;;;;;;;12.30;99.90;;;;;;5064195;28;20293;-65
2023/05/16 08:22:16;;;;;;;;;;;12.40;99.90;;;;;;5061601;28;19929;-65
2023/05/16 08:24:48;;;;;;;;;;;12.30;99.90;;;;;;5058353;28;19925;-64
2023/05/16 08:27:15;;;;;;;;;;;12.30;99.90;;;;;;5056874;28;19933;-65
2023/05/16 08:29:47;;;;;;;;;;;12.40;99.90;;;;;;5062203;28;19925;-64
2023/05/16 08:32:14;;;;;;;;;;;12.40;99.90;;;;;;5068904;28;19928;-65
2023/05/16 08:34:46;;;;;;;;;;;12.50;99.90;;;;;;5065804;28;19932;-65
2023/05/16 08:37:18;;;;;;;;;;;12.60;99.90;;;;;;5063590;28;19924;-65
2023/05/16 08:39:46;;;;;;;;;;;12.60;99.90;;;;;;5062026;28;20305;-64
2023/05/16 08:42:18;;;;;;;;;;;12.60;99.90;;;;;;5060580;28;20380;-65
2023/05/16 08:44:50;;;;;;;;;;;12.70;99.90;;;;;;5064293;28;19928;-65
2023/05/16 08:47:20;;;;;;;;;;;12.80;99.90;;;;;;5064084;28;20435;-65
2023/05/16 08:49:50;;;;;;;;;;;12.90;99.90;;;;;;5064796;28;19968;-65
2023/05/16 08:52:25;;;;;;;;;;;12.90;99.90;;;;;;5065823;28;20066;-65
2023/05/16 08:54:59;;;;;;;;;;;12.90;99.90;;;;;;5078277;28;19924;-64
2023/05/16 08:57:27;;;;;;;;;;;13.00;99.90;;;;;;5062068;28;19924;-64
2023/05/16 08:59:56;;;;;;;;;;;12.90;99.90;;;;;;5065634;28;19930;-64
2023/05/16 09:02:28;;;;;;;;;;;12.90;99.90;;;;;;5059337;28;19929;-64
2023/05/16 09:05:00;;;;;;;;;;;13.00;99.90;;;;;;5062212;28;19924;-65
2023/05/16 09:07:32;;;;;;;;;;;13.00;99.90;;;;;;5062035;28;19959;-64
2023/05/16 09:10:05;;;;;;;;;;;13.10;99.90;;;;;;5068284;28;20307;-65
2023/05/16 09:12:38;;;;;;;;;;;13.10;99.90;;;;;;5062665;28;20396;-65
2023/05/16 09:15:12;;;;;;;;;;;13.10;99.90;;;;;;5064347;28;20027;-64
2023/05/16 09:17:45;;;;;;;;;;;13.20;99.90;;;;;;5065769;28;19925;-65
2023/05/16 09:20:18;;;;;;;;;;;13.30;99.90;;;;;;5065595;28;19929;-65
2023/05/16 09:22:54;;;;;;;;;;;13.40;99.90;;;;;;5059228;28;19998;-64
2023/05/16 09:25:27;;;;;;;;;;;13.50;99.90;;;;;;5057221;28;20011;-65
2023/05/16 09:28:00;;;;;;;;;;;13.60;99.90;;;;;;5057086;28;19931;-65
2023/05/16 09:30:32;;;;;;;;;;;13.70;99.90;;;;;;5058520;28;20023;-65
2023/05/16 09:33:05;;;;;;;;;;;13.80;99.90;;;;;;5060447;28;19931;-65
2023/05/16 09:35:37;;;;;;;;;;;13.80;99.90;;;;;;5061058;28;19955;-65
2023/05/16 09:38:04;;;;;;;;;;;13.80;99.90;;;;;;5062424;28;19925;-65
2023/05/16 09:40:31;;;;;;;;;;;13.90;99.90;;;;;;5062991;28;20397;-65
2023/05/16 09:43:04;;;;;;;;;;;13.80;99.90;;;;;;5067929;28;19950;-64
2023/05/16 09:45:32;;;;;;;;;;;13.90;99.90;;;;;;5058213;28;19929;-65
2023/05/16 09:48:06;;;;;;;;;;;14.10;99.90;;;;;;5064104;28;19931;-65
2023/05/16 09:50:38;;;;;;;;;;;14.20;99.90;;;;;;5055956;28;19929;-65
2023/05/16 09:53:12;;;;;;;;;;;14.30;99.90;;;;;;5061304;28;20026;-65
2023/05/16 09:55:44;;;;;;;;;;;14.40;99.90;;;;;;5059274;28;19931;-65
2023/05/16 09:58:16;;;;;;;;;;;14.40;99.90;;;;;;5048638;28;19928;-65
2023/05/16 10:00:47;;;;;;;;;;;14.50;99.90;;;;;;5063682;28;20323;-65
2023/05/16 10:03:14;;;;;;;;;;;14.60;99.90;;;;;;5065651;28;20462;-65
2023/05/16 10:05:46;;;;;;;;;;;14.70;99.90;;;;;;5064764;28;20411;-65
2023/05/16 10:08:20;;;;;;;;;;;14.70;99.90;;;;;;5062271;28;19960;-64
2023/05/16 10:10:53;;;;;;;;;;;14.70;99.90;;;;;;5062327;28;20034;-64
2023/05/16 10:13:29;;;;;;;;;;;14.70;99.90;;;;;;5056920;28;19925;-65
2023/05/16 10:16:11;;;;;;;;;;;14.70;99.90;;;;;;5057036;28;19960;-65
2023/05/16 10:18:39;;;;;;;;;;;14.70;99.90;;;;;;5069968;28;19925;-65
2023/05/16 10:21:16;;;;;;;;;;;14.70;99.90;;;;;;5060403;28;19932;-65
2023/05/16 10:23:50;;;;;;;;;;;14.60;99.90;;;;;;5062879;28;20466;-65
2023/05/16 10:26:20;;;;;;;;;;;14.60;99.90;;;;;;5065252;28;20456;-65
2023/05/16 10:28:52;;;;;;;;;;;14.70;99.90;;;;;;5065746;28;19932;-65
2023/05/16 10:31:19;;;;;;;;;;;14.80;99.90;;;;;;5063888;28;20019;-65
2023/05/16 10:33:46;;;;;;;;;;;14.80;99.90;;;;;;5061739;28;20466;-65
2023/05/16 10:36:14;;;;;;;;;;;14.80;99.90;;;;;;5062910;28;19936;-65
2023/05/16 10:38:46;;;;;;;;;;;14.90;99.90;;;;;;5057833;28;19940;-65
2023/05/16 10:41:13;;;;;;;;;;;14.90;99.90;;;;;;5057375;28;20464;-65
2023/05/16 10:43:55;;;;;;;;;;;15.00;99.90;;;;;;5058579;28;19925;-64
2023/05/16 10:46:22;;;;;;;;;;;15.10;99.90;;;;;;5064292;28;19929;-65
2023/05/16 10:48:54;;;;;;;;;;;15.10;99.90;;;;;;5067081;28;19932;-64
2023/05/16 10:51:32;;;;;;;;;;;15.20;99.90;;;;;;5065993;28;19928;-65
2023/05/16 10:54:08;;;;;;;;;;;15.20;99.90;;;;;;5064100;28;20420;-65
2023/05/16 10:56:39;;;;;;;;;;;15.20;99.90;;;;;;5063128;28;19936;-65
2023/05/16 10:59:22;;;;;;;;;;;15.20;99.90;;;;;;5065585;28;19925;-65
2023/05/16 11:01:54;;;;;;;;;;;15.40;99.90;;;;;;5065055;28;19928;-64
2023/05/16 11:04:44;;;;;;;;;;;15.50;99.90;;;;;;5058716;28;19980;-65
2023/05/16 11:07:11;;;;;;;;;;;15.40;99.90;;;;;;5059106;28;19931;-65
2023/05/16 11:09:42;;;;;;;;;;;15.40;99.90;;;;;;5069859;28;20026;-65
2023/05/16 11:12:09;;;;;;;;;;;15.40;99.90;;;;;;5066873;28;20339;-65
2023/05/16 11:14:42;;;;;;;;;;;15.50;99.90;;;;;;5062353;28;19931;-64
2023/05/16 11:17:14;;;;;;;;;;;15.50;99.90;;;;;;5063985;28;19931;-65
2023/05/16 11:19:50;;;;;;;;;;;15.40;99.90;;;;;;5064179;28;19929;-64
2023/05/16 11:22:23;;;;;;;;;;;15.40;99.90;;;;;;5057321;28;19928;-65
2023/05/16 11:24:53;;;;;;;;;;;15.40;99.90;;;;;;5061736;28;20015;-65
2023/05/16 11:27:28;;;;;;;;;;;15.50;99.90;;;;;;5049957;28;19925;-65
2023/05/16 11:30:06;;;;;;;;;;;15.50;99.90;;;;;;5069909;28;20018;-65
2023/05/16 11:32:38;;;;;;;;;;;15.60;99.90;;;;;;5056207;28;20065;-65
2023/05/16 11:35:11;;;;;;;;;;;15.60;99.90;;;;;;5066024;28;19928;-64
2023/05/16 11:37:38;;;;;;;;;;;15.70;99.90;;;;;;5065365;28;19948;-64
2023/05/16 11:40:11;;;;;;;;;;;15.50;99.90;;;;;;5066901;28;19924;-64
2023/05/16 11:42:43;;;;;;;;;;;15.20;99.90;;;;;;5067065;28;20456;-64
2023/05/16 11:45:15;;;;;;;;;;;14.80;99.90;;;;;;5067238;28;19932;-64
2023/05/16 11:47:47;;;;;;;;;;;14.40;99.90;;;;;;5065781;28;19931;-64
2023/05/16 11:50:21;;;;;;;;;;;14.10;99.90;;;;;;5064954;28;19928;-64
2023/05/16 11:52:54;;;;;;;;;;;14.10;99.90;;;;;;5066712;28;19924;-64
2023/05/16 11:55:23;;;;;;;;;;;14.00;99.90;;;;;;5066387;28;19998;-64
2023/05/16 11:57:58;;;;;;;;;;;14.00;99.90;;;;;;5065770;28;20008;-65
2023/05/16 12:00:30;;;;;;;;;;;13.80;99.90;;;;;;5069718;28;20446;-64
2023/05/16 12:03:01;;;;;;;;;;;13.60;99.90;;;;;;5064705;28;20046;-65
2023/05/16 12:05:33;;;;;;;;;;;13.40;99.90;;;;;;5067141;28;19924;-65
2023/05/16 12:08:01;;;;;;;;;;;13.20;99.90;;;;;;5066241;28;19928;-65
2023/05/16 12:10:33;;;;;;;;;;;12.90;99.90;;;;;;5066469;28;20401;-65
2023/05/16 12:13:00;;;;;;;;;;;12.80;99.90;;;;;;5068116;28;19928;-65
2023/05/16 12:15:32;;;;;;;;;;;12.70;99.90;;;;;;5066155;28;19929;-65
2023/05/16 12:17:59;;;;;;;;;;;12.60;99.90;;;;;;5063437;28;20408;-65
2023/05/16 12:20:26;;;;;;;;;;;12.50;99.90;;;;;;5068873;28;19964;-65
2023/05/16 12:22:58;;;;;;;;;;;12.40;99.90;;;;;;5067776;28;19935;-64
2023/05/16 12:25:36;;;;;;;;;;;12.40;99.90;;;;;;5067554;28;19936;-64
2023/05/16 12:28:08;;;;;;;;;;;12.30;99.90;;;;;;5063590;28;20463;-65
2023/05/16 12:30:38;;;;;;;;;;;12.20;99.90;;;;;;5068711;28;19928;-65
2023/05/16 12:33:11;;;;;;;;;;;12.20;99.90;;;;;;5064343;28;19931;-65
2023/05/16 12:35:40;;;;;;;;;;;12.20;99.90;;;;;;5063727;28;20475;-65
2023/05/16 12:38:12;;;;;;;;;;;12.20;99.90;;;;;;5066281;28;19928;-65
2023/05/16 12:40:41;;;;;;;;;;;12.30;99.90;;;;;;5058592;28;19929;-65
2023/05/16 12:43:12;;;;;;;;;;;12.20;99.90;;;;;;5062992;28;19925;-65
2023/05/16 12:45:54;;;;;;;;;;;12.20;99.90;;;;;;5064466;28;19936;-65
2023/05/16 12:48:35;;;;;;;;;;;12.20;99.90;;;;;;5065513;28;19931;-65
2023/05/16 12:51:09;;;;;;;;;;;12.10;99.90;;;;;;5065651;28;19978;-65
2023/05/16 12:53:44;;;;;;;;;;;12.10;99.90;;;;;;5083645;28;19924;-65
2023/05/16 12:56:16;;;;;;;;;;;12.00;99.90;;;;;;5066911;28;19935;-65
2023/05/16 12:58:50;;;;;;;;;;;12.00;99.90;;;;;;5066667;28;19935;-65
2023/05/16 13:01:22;;;;;;;;;;;12.00;99.90;;;;;;5051549;28;20416;-65
2023/05/16 13:03:53;;;;;;;;;;;12.00;99.90;;;;;;5065418;28;19930;-65
2023/05/16 13:06:25;;;;;;;;;;;12.00;99.90;;;;;;5066547;28;20406;-65
2023/05/16 13:08:52;;;;;;;;;;;12.10;99.90;;;;;;5068858;28;20003;-65
2023/05/16 13:11:19;;;;;;;;;;;12.10;99.90;;;;;;5062154;28;19993;-65
2023/05/16 13:13:51;;;;;;;;;;;12.20;99.90;;;;;;5063953;28;20286;-65
2023/05/16 13:16:23;;;;;;;;;;;12.20;99.90;;;;;;5065391;28;19928;-65
2023/05/16 13:18:55;;;;;;;;;;;12.20;99.90;;;;;;5067737;28;19925;-65
2023/05/16 13:21:30;;;;;;;;;;;12.20;99.90;;;;;;5067204;28;20020;-65
2023/05/16 13:24:02;;;;;;;;;;;12.20;99.90;;;;;;5067164;28;20289;-65
2023/05/16 13:26:34;;;;;;;;;;;12.20;99.90;;;;;;5060833;28;19932;-65
2023/05/16 13:29:08;;;;;;;;;;;12.20;99.90;;;;;;5066768;28;19995;-65
2023/05/16 13:31:40;;;;;;;;;;;12.20;99.90;;;;;;5062345;28;19928;-65
2023/05/16 13:34:06;;;;;;;;;;;12.20;99.90;;;;;;5059368;28;20019;-65
2023/05/16 13:36:38;;;;;;;;;;;12.20;99.90;;;;;;5061672;28;19928;-65
2023/05/16 13:39:11;;;;;;;;;;;12.10;99.90;;;;;;5069138;28;19925;-65
2023/05/16 13:41:43;;;;;;;;;;;12.10;99.90;;;;;;5061779;28;19928;-65
2023/05/16 13:44:15;;;;;;;;;;;12.00;99.90;;;;;;5065159;28;19964;-64
2023/05/16 13:46:47;;;;;;;;;;;11.90;99.90;;;;;;5067000;28;19928;-64
2023/05/16 13:49:19;;;;;;;;;;;11.90;99.90;;;;;;5059456;28;19924;-64
2023/05/16 13:51:51;;;;;;;;;;;11.90;99.90;;;;;;5062682;28;20289;-65
2023/05/16 13:54:23;;;;;;;;;;;11.90;99.90;;;;;;5065236;28;19924;-65
2023/05/16 13:56:54;;;;;;;;;;;11.80;99.90;;;;;;5058795;28;19936;-65
2023/05/16 13:59:21;;;;;;;;;;;11.80;99.90;;;;;;5060612;28;20459;-65
2023/05/16 14:01:53;;;;;;;;;;;11.80;99.90;;;;;;5062189;28;20293;-65
2023/05/16 14:04:20;;;;;;;;;;;11.70;99.90;;;;;;5060425;28;19929;-65
2023/05/16 14:06:51;;;;;;;;;;;11.70;99.90;;;;;;5068132;28;20017;-65
2023/05/16 14:09:23;;;;;;;;;;;11.70;99.90;;;;;;5067626;28;20365;-65
2023/05/16 14:11:55;;;;;;;;;;;11.70;99.90;;;;;;5066231;28;19932;-65
2023/05/16 14:14:27;;;;;;;;;;;11.60;99.90;;;;;;5077399;28;20011;-65
2023/05/16 14:16:59;;;;;;;;;;;11.70;99.90;;;;;;5064580;28;20303;-65
2023/05/16 14:19:30;;;;;;;;;;;11.60;99.90;;;;;;5067332;28;19925;-66
2023/05/16 14:22:02;;;;;;;;;;;11.70;99.90;;;;;;5062034;28;19925;-66
2023/05/16 14:24:34;;;;;;;;;;;11.70;99.90;;;;;;5058727;28;20416;-65
2023/05/16 14:27:01;;;;;;;;;;;11.70;99.90;;;;;;5070388;28;19925;-65
2023/05/16 14:29:28;;;;;;;;;;;11.80;99.90;;;;;;5067060;28;19928;-65
2023/05/16 14:32:00;;;;;;;;;;;11.80;99.90;;;;;;5067919;28;20408;-65
2023/05/16 14:34:32;;;;;;;;;;;11.80;99.90;;;;;;5065878;28;20003;-65
2023/05/16 14:37:04;;;;;;;;;;;11.80;99.90;;;;;;5065283;28;19939;-65
2023/05/16 14:39:36;;;;;;;;;;;11.80;99.90;;;;;;5065531;28;19932;-65
2023/05/16 14:42:03;;;;;;;;;;;11.80;99.90;;;;;;5064906;28;20697;-66
2023/05/16 14:44:35;;;;;;;;;;;11.70;99.90;;;;;;5055332;28;19929;-65
2023/05/16 14:47:03;;;;;;;;;;;11.80;99.90;;;;;;5059201;28;19931;-65